createdAt,value
2017-07-01T00:00:38.688Z,16.42
2017-07-01T00:01:38.664Z,16.33
2017-07-01T00:02:38.645Z,16.37
2017-07-01T00:03:38.681Z,16.4
2017-07-01T00:04:38.305Z,16.32
2017-07-01T00:05:38.577Z,16.27
2017-07-01T00:06:38.555Z,16.29
2017-07-01T00:07:38.242Z,16.37
2017-07-01T00:08:38.513Z,16.37
2017-07-01T00:09:38.495Z,16.3
2017-07-01T00:10:38.469Z,16.27
2017-07-01T00:11:38.455Z,16.25
2017-07-01T00:12:38.430Z,16.25
2017-07-01T00:13:38.416Z,16.33
2017-07-01T00:14:38.388Z,16.29
2017-07-01T00:15:38.387Z,16.3
2017-07-01T00:16:38.350Z,16.3
2017-07-01T00:17:38.327Z,16.32
2017-07-01T00:18:38.360Z,16.26
2017-07-01T00:19:38.292Z,16.26
2017-07-01T00:20:38.270Z,16.27
2017-07-01T00:21:38.256Z,16.27
2017-07-01T00:22:38.235Z,16.26
2017-07-01T00:23:38.207Z,16.25
2017-07-01T00:24:38.186Z,16.22
2017-07-01T00:25:38.215Z,16.27
2017-07-01T00:26:38.142Z,16.3
2017-07-01T00:27:38.125Z,16.3
2017-07-01T00:28:38.109Z,16.22
2017-07-01T00:29:37.480Z,16.3
2017-07-01T00:30:38.063Z,16.23
2017-07-01T00:31:38.052Z,16.22
2017-07-01T00:32:38.021Z,16.23
2017-07-01T00:33:37.999Z,16.23
2017-07-01T00:34:37.984Z,16.23
2017-07-01T00:35:37.661Z,16.26
2017-07-01T00:36:37.942Z,16.22
2017-07-01T00:37:37.915Z,16.22
2017-07-01T00:38:37.898Z,16.29
2017-07-01T00:39:37.877Z,16.29
2017-07-01T00:40:37.855Z,16.23
2017-07-01T00:41:37.837Z,16.26
2017-07-01T00:42:37.813Z,16.25
2017-07-01T00:43:37.793Z,16.18
2017-07-01T00:44:37.779Z,16.18
2017-07-01T00:45:37.750Z,16.23
2017-07-01T00:46:37.730Z,16.14
2017-07-01T00:47:37.709Z,16.18
2017-07-01T00:48:37.693Z,16.18
2017-07-01T00:49:37.368Z,16.26
2017-07-01T00:50:37.655Z,16.18
2017-07-01T00:51:37.629Z,16.13
2017-07-01T00:52:37.608Z,16.17
2017-07-01T00:53:37.595Z,16.11
2017-07-01T00:54:37.570Z,16.08
2017-07-01T00:55:37.551Z,16.11
2017-07-01T00:56:37.522Z,16.11
2017-07-01T00:57:37.556Z,16.13
2017-07-01T00:58:37.493Z,16.07
2017-07-01T00:59:37.457Z,16.13
2017-07-01T01:00:37.443Z,16.07
2017-07-01T01:01:37.417Z,15.98
2017-07-01T01:02:37.105Z,16.01
2017-07-01T01:03:37.383Z,16.01
2017-07-01T01:04:37.416Z,15.91
2017-07-01T01:05:37.336Z,16.01
2017-07-01T01:06:37.318Z,16.01
2017-07-01T01:07:37.300Z,15.98
2017-07-01T01:08:37.273Z,16.04
2017-07-01T01:09:37.252Z,15.98
2017-07-01T01:10:37.234Z,16.01
2017-07-01T01:11:37.212Z,15.98
2017-07-01T01:12:37.188Z,15.98
2017-07-01T01:13:37.169Z,15.96
2017-07-01T01:14:37.152Z,15.99
2017-07-01T01:15:36.831Z,15.93
2017-07-01T01:16:37.103Z,15.99
2017-07-01T01:17:37.083Z,16.04
2017-07-01T01:18:37.118Z,15.89
2017-07-01T01:19:37.049Z,15.95
2017-07-01T01:20:37.022Z,15.95
2017-07-01T01:21:37.003Z,15.91
2017-07-01T01:22:36.674Z,15.84
2017-07-01T01:23:36.955Z,15.86
2017-07-01T01:24:36.937Z,15.85
2017-07-01T01:25:36.914Z,15.92
2017-07-01T01:26:36.947Z,15.98
2017-07-01T01:27:36.880Z,15.95
2017-07-01T01:28:36.856Z,15.91
2017-07-01T01:29:36.839Z,15.92
2017-07-01T01:30:36.824Z,15.91
2017-07-01T01:31:36.789Z,15.92
2017-07-01T01:32:36.770Z,15.91
2017-07-01T01:33:36.452Z,15.84
2017-07-01T01:34:36.727Z,15.88
2017-07-01T01:35:36.712Z,15.86
2017-07-01T01:36:36.395Z,15.88
2017-07-01T01:37:36.672Z,15.77
2017-07-01T01:38:36.405Z,15.81
2017-07-01T01:39:36.634Z,15.76
2017-07-01T01:40:36.606Z,15.81
2017-07-01T01:41:36.587Z,15.78
2017-07-01T01:42:36.562Z,15.84
2017-07-01T01:43:36.546Z,15.81
2017-07-01T01:44:36.517Z,15.78
2017-07-01T01:45:36.504Z,15.77
2017-07-01T01:46:36.479Z,15.74
2017-07-01T01:47:36.462Z,15.74
2017-07-01T01:48:36.436Z,15.78
2017-07-01T01:49:36.466Z,15.74
2017-07-01T01:50:36.388Z,15.77
2017-07-01T01:51:36.379Z,15.74
2017-07-01T01:52:36.353Z,15.68
2017-07-01T01:53:36.336Z,15.73
2017-07-01T01:54:36.309Z,15.71
2017-07-01T01:55:36.293Z,15.58
2017-07-01T01:56:36.274Z,15.67
2017-07-01T01:57:36.251Z,15.7
2017-07-01T01:58:36.226Z,15.73
2017-07-01T01:59:36.209Z,15.68
2017-07-01T02:00:36.182Z,15.68
2017-07-01T02:01:36.172Z,15.58
2017-07-01T02:02:36.155Z,15.59
2017-07-01T02:03:35.818Z,15.66
2017-07-01T02:04:35.796Z,15.68
2017-07-01T02:05:36.079Z,15.7
2017-07-01T02:06:36.054Z,15.64
2017-07-01T02:07:35.743Z,15.6
2017-07-01T02:08:36.028Z,15.64
2017-07-01T02:09:35.692Z,15.55
2017-07-01T02:10:35.981Z,15.53
2017-07-01T02:11:35.955Z,15.59
2017-07-01T02:12:35.933Z,15.6
2017-07-01T02:13:35.908Z,15.6
2017-07-01T02:14:35.896Z,15.6
2017-07-01T02:15:36.117Z,15.58
2017-07-01T02:16:35.843Z,15.6
2017-07-01T02:17:35.835Z,15.56
2017-07-01T02:18:35.808Z,15.55
2017-07-01T02:19:35.786Z,15.58
2017-07-01T02:20:35.765Z,15.52
2017-07-01T02:21:35.743Z,15.52
2017-07-01T02:22:35.735Z,15.56
2017-07-01T02:23:35.773Z,15.64
2017-07-01T02:24:35.412Z,15.53
2017-07-01T02:25:35.692Z,15.53
2017-07-01T02:26:35.639Z,15.56
2017-07-01T02:27:35.667Z,15.48
2017-07-01T02:28:35.595Z,15.52
2017-07-01T02:29:35.571Z,15.58
2017-07-01T02:30:35.556Z,15.55
2017-07-01T02:31:35.528Z,15.53
2017-07-01T02:32:35.561Z,15.59
2017-07-01T02:33:35.491Z,15.52
2017-07-01T02:34:35.469Z,15.48
2017-07-01T02:35:35.460Z,15.58
2017-07-01T02:36:35.474Z,15.53
2017-07-01T02:37:35.407Z,15.49
2017-07-01T02:38:35.391Z,15.52
2017-07-01T02:39:35.362Z,15.52
2017-07-01T02:40:35.341Z,15.49
2017-07-01T02:41:35.336Z,15.51
2017-07-01T02:42:35.350Z,15.4
2017-07-01T02:43:35.314Z,15.41
2017-07-01T02:44:35.280Z,15.43
2017-07-01T02:45:35.241Z,15.41
2017-07-01T02:46:35.226Z,15.41
2017-07-01T02:47:35.198Z,15.4
2017-07-01T02:48:35.185Z,15.4
2017-07-01T02:49:35.154Z,15.44
2017-07-01T02:50:35.133Z,15.46
2017-07-01T02:51:35.118Z,15.49
2017-07-01T02:52:35.102Z,15.51
2017-07-01T02:53:35.072Z,15.49
2017-07-01T02:54:35.050Z,15.46
2017-07-01T02:55:35.027Z,15.53
2017-07-01T02:56:34.705Z,15.58
2017-07-01T02:57:34.935Z,15.52
2017-07-01T02:58:34.966Z,15.53
2017-07-01T02:59:34.947Z,15.52
2017-07-01T03:00:34.918Z,15.49
2017-07-01T03:01:34.900Z,15.51
2017-07-01T03:02:34.933Z,15.49
2017-07-01T03:03:34.856Z,15.41
2017-07-01T03:04:34.846Z,15.48
2017-07-01T03:05:34.824Z,15.51
2017-07-01T03:06:34.790Z,15.48
2017-07-01T03:07:34.788Z,15.41
2017-07-01T03:08:34.756Z,15.52
2017-07-01T03:09:34.742Z,15.46
2017-07-01T03:10:34.712Z,15.41
2017-07-01T03:11:34.696Z,15.41
2017-07-01T03:12:34.677Z,15.46
2017-07-01T03:13:34.652Z,15.41
2017-07-01T03:14:34.638Z,15.41
2017-07-01T03:15:34.617Z,15.28
2017-07-01T03:16:34.593Z,15.41
2017-07-01T03:17:34.572Z,15.4
2017-07-01T03:18:34.545Z,15.44
2017-07-01T03:19:34.528Z,15.4
2017-07-01T03:20:34.508Z,15.43
2017-07-01T03:21:34.491Z,15.41
2017-07-01T03:22:34.458Z,15.33
2017-07-01T03:23:34.451Z,15.37
2017-07-01T03:24:34.418Z,15.38
2017-07-01T03:25:34.397Z,15.41
2017-07-01T03:26:34.373Z,15.48
2017-07-01T03:27:34.405Z,15.38
2017-07-01T03:28:34.337Z,15.46
2017-07-01T03:29:34.325Z,15.43
2017-07-01T03:30:34.346Z,15.53
2017-07-01T03:31:33.972Z,15.49
2017-07-01T03:32:34.254Z,15.53
2017-07-01T03:33:34.282Z,15.55
2017-07-01T03:34:34.216Z,15.51
2017-07-01T03:35:34.234Z,15.59
2017-07-01T03:36:34.169Z,15.55
2017-07-01T03:37:34.146Z,15.49
2017-07-01T03:38:34.125Z,15.49
2017-07-01T03:39:34.101Z,15.49
2017-07-01T03:40:34.082Z,15.48
2017-07-01T03:41:34.060Z,15.51
2017-07-01T03:42:33.743Z,15.53
2017-07-01T03:43:34.018Z,15.49
2017-07-01T03:44:34.001Z,15.51
2017-07-01T03:45:33.980Z,15.49
2017-07-01T03:46:33.957Z,15.49
2017-07-01T03:47:34.001Z,15.58
2017-07-01T03:48:33.916Z,15.55
2017-07-01T03:49:33.896Z,15.52
2017-07-01T03:50:33.922Z,15.49
2017-07-01T03:51:33.852Z,15.58
2017-07-01T03:52:33.830Z,15.58
2017-07-01T03:53:33.818Z,15.49
2017-07-01T03:54:33.785Z,15.49
2017-07-01T03:55:33.765Z,15.62
2017-07-01T03:56:33.745Z,15.62
2017-07-01T03:57:33.723Z,15.64
2017-07-01T03:58:33.704Z,15.68
2017-07-01T03:59:33.689Z,15.71
2017-07-01T04:00:33.658Z,15.74
2017-07-01T04:01:33.640Z,15.73
2017-07-01T04:02:33.623Z,15.73
2017-07-01T04:03:33.600Z,15.71
2017-07-01T04:04:33.582Z,15.71
2017-07-01T04:05:33.556Z,15.71
2017-07-01T04:06:33.536Z,15.62
2017-07-01T04:07:33.521Z,15.74
2017-07-01T04:08:33.499Z,15.73
2017-07-01T04:09:33.524Z,15.71
2017-07-01T04:10:33.455Z,15.78
2017-07-01T04:11:33.432Z,15.78
2017-07-01T04:12:33.114Z,15.78
2017-07-01T04:13:33.390Z,15.78
2017-07-01T04:14:33.370Z,15.76
2017-07-01T04:15:33.343Z,15.77
2017-07-01T04:16:33.378Z,15.68
2017-07-01T04:17:33.302Z,15.74
2017-07-01T04:18:33.586Z,15.73
2017-07-01T04:19:33.505Z,15.73
2017-07-01T04:20:33.240Z,15.78
2017-07-01T04:21:33.219Z,15.78
2017-07-01T04:22:33.202Z,15.81
2017-07-01T04:23:33.182Z,15.8
2017-07-01T04:24:33.157Z,15.81
2017-07-01T04:25:32.835Z,15.77
2017-07-01T04:26:33.116Z,15.77
2017-07-01T04:27:33.099Z,15.78
2017-07-01T04:28:33.073Z,15.76
2017-07-01T04:29:33.055Z,15.84
2017-07-01T04:30:33.027Z,15.74
2017-07-01T04:31:33.015Z,15.8
2017-07-01T04:32:32.993Z,15.7
2017-07-01T04:33:33.020Z,15.7
2017-07-01T04:34:32.952Z,15.66
2017-07-01T04:35:32.623Z,15.64
2017-07-01T04:36:32.900Z,15.62
2017-07-01T04:37:32.637Z,15.6
2017-07-01T04:38:32.867Z,15.6
2017-07-01T04:39:32.900Z,15.58
2017-07-01T04:40:32.823Z,15.66
2017-07-01T04:41:32.848Z,15.58
2017-07-01T04:42:32.780Z,15.55
2017-07-01T04:43:32.756Z,15.49
2017-07-01T04:44:32.738Z,15.52
2017-07-01T04:45:32.717Z,15.66
2017-07-01T04:46:32.801Z,15.55
2017-07-01T04:47:32.677Z,15.67
2017-07-01T04:48:32.653Z,15.6
2017-07-01T04:49:32.636Z,15.53
2017-07-01T04:50:32.665Z,15.53
2017-07-01T04:51:32.595Z,15.67
2017-07-01T04:52:32.609Z,15.64
2017-07-01T04:53:32.557Z,15.58
2017-07-01T04:54:32.526Z,15.59
2017-07-01T04:55:32.511Z,15.52
2017-07-01T04:56:32.485Z,15.49
2017-07-01T04:57:32.465Z,15.59
2017-07-01T04:58:32.450Z,15.62
2017-07-01T04:59:32.426Z,15.67
2017-07-01T05:00:32.407Z,15.64
2017-07-01T05:01:32.384Z,15.67
2017-07-01T05:02:32.361Z,15.73
2017-07-01T05:03:32.344Z,15.76
2017-07-01T05:04:32.317Z,15.73
2017-07-01T05:05:32.296Z,15.74
2017-07-01T05:06:32.275Z,15.74
2017-07-01T05:07:32.249Z,15.77
2017-07-01T05:08:32.234Z,15.76
2017-07-01T05:09:32.217Z,15.78
2017-07-01T05:10:31.894Z,15.78
2017-07-01T05:11:32.167Z,15.7
2017-07-01T05:12:32.204Z,15.78
2017-07-01T05:13:32.136Z,15.74
2017-07-01T05:14:32.106Z,15.76
2017-07-01T05:15:31.786Z,15.78
2017-07-01T05:16:32.067Z,15.78
2017-07-01T05:17:32.042Z,15.77
2017-07-01T05:18:32.020Z,15.81
2017-07-01T05:19:32.003Z,15.77
2017-07-01T05:20:31.980Z,15.78
2017-07-01T05:21:31.957Z,15.77
2017-07-01T05:22:31.940Z,15.76
2017-07-01T05:23:31.921Z,15.81
2017-07-01T05:24:31.903Z,15.85
2017-07-01T05:25:31.875Z,15.86
2017-07-01T05:26:31.905Z,15.86
2017-07-01T05:27:31.539Z,15.88
2017-07-01T05:28:31.815Z,15.89
2017-07-01T05:29:31.792Z,15.85
2017-07-01T05:30:31.774Z,15.85
2017-07-01T05:31:31.455Z,15.89
2017-07-01T05:32:31.734Z,15.86
2017-07-01T05:33:31.711Z,15.86
2017-07-01T05:34:31.689Z,15.92
2017-07-01T05:35:31.672Z,15.93
2017-07-01T05:36:31.351Z,15.92
2017-07-01T05:37:31.630Z,15.91
2017-07-01T05:38:31.609Z,15.86
2017-07-01T05:39:31.584Z,15.92
2017-07-01T05:40:31.564Z,15.85
2017-07-01T05:41:31.541Z,15.86
2017-07-01T05:42:31.519Z,15.86
2017-07-01T05:43:31.499Z,15.88
2017-07-01T05:44:31.477Z,15.8
2017-07-01T05:45:31.466Z,15.8
2017-07-01T05:46:31.438Z,15.8
2017-07-01T05:47:31.414Z,15.8
2017-07-01T05:48:31.398Z,15.78
2017-07-01T05:49:31.427Z,15.76
2017-07-01T05:50:31.404Z,15.84
2017-07-01T05:51:31.637Z,15.84
2017-07-01T05:52:31.363Z,15.84
2017-07-01T05:53:31.296Z,15.92
2017-07-01T05:54:31.264Z,15.86
2017-07-01T05:55:31.251Z,15.95
2017-07-01T05:56:31.227Z,15.85
2017-07-01T05:57:31.209Z,15.84
2017-07-01T05:58:30.891Z,15.86
2017-07-01T05:59:31.169Z,15.89
2017-07-01T06:00:31.147Z,15.88
2017-07-01T06:01:31.132Z,15.88
2017-07-01T06:02:31.109Z,15.81
2017-07-01T06:03:31.081Z,15.86
2017-07-01T06:04:31.053Z,15.92
2017-07-01T06:05:31.083Z,15.86
2017-07-01T06:06:31.023Z,15.92
2017-07-01T06:07:30.999Z,15.91
2017-07-01T06:08:30.980Z,15.91
2017-07-01T06:09:30.956Z,15.8
2017-07-01T06:10:30.931Z,15.88
2017-07-01T06:11:30.968Z,15.89
2017-07-01T06:12:30.900Z,15.88
2017-07-01T06:13:30.574Z,15.92
2017-07-01T06:14:30.847Z,15.84
2017-07-01T06:15:30.830Z,15.92
2017-07-01T06:16:30.808Z,15.91
2017-07-01T06:17:30.839Z,15.78
2017-07-01T06:18:30.768Z,15.78
2017-07-01T06:19:30.743Z,15.78
2017-07-01T06:20:30.722Z,15.77
2017-07-01T06:21:30.703Z,15.74
2017-07-01T06:22:30.683Z,15.78
2017-07-01T06:23:30.661Z,15.74
2017-07-01T06:24:30.648Z,15.85
2017-07-01T06:25:30.627Z,15.8
2017-07-01T06:26:30.596Z,15.89
2017-07-01T06:27:30.581Z,15.95
2017-07-01T06:28:30.574Z,15.89
2017-07-01T06:29:30.297Z,15.93
2017-07-01T06:30:30.524Z,15.93
2017-07-01T06:31:30.496Z,15.95
2017-07-01T06:32:30.487Z,16.04
2017-07-01T06:33:30.451Z,16.1
2017-07-01T06:34:30.446Z,16.13
2017-07-01T06:35:30.414Z,16.18
2017-07-01T06:36:30.142Z,16.17
2017-07-01T06:37:30.369Z,16.08
2017-07-01T06:38:30.349Z,16.13
2017-07-01T06:39:30.392Z,16.18
2017-07-01T06:40:30.307Z,16.07
2017-07-01T06:41:30.289Z,16.08
2017-07-01T06:42:30.268Z,16.04
2017-07-01T06:43:30.250Z,15.99
2017-07-01T06:44:30.239Z,16.06
2017-07-01T06:45:30.208Z,16.08
2017-07-01T06:46:30.181Z,16.08
2017-07-01T06:47:30.168Z,16.1
2017-07-01T06:48:30.161Z,16.1
2017-07-01T06:49:30.126Z,16.11
2017-07-01T06:50:29.799Z,16.11
2017-07-01T06:51:30.080Z,16.16
2017-07-01T06:52:30.152Z,16.11
2017-07-01T06:53:30.039Z,16.16
2017-07-01T06:54:30.019Z,16.06
2017-07-01T06:55:29.995Z,16.11
2017-07-01T06:56:29.980Z,16.07
2017-07-01T06:57:29.649Z,16.11
2017-07-01T06:58:29.943Z,16.17
2017-07-01T06:59:29.922Z,16.26
2017-07-01T07:00:29.896Z,16.23
2017-07-01T07:01:29.871Z,16.18
2017-07-01T07:02:29.862Z,16.25
2017-07-01T07:03:29.829Z,16.27
2017-07-01T07:04:29.814Z,16.22
2017-07-01T07:05:29.792Z,16.23
2017-07-01T07:06:29.770Z,16.16
2017-07-01T07:07:29.759Z,16.14
2017-07-01T07:08:29.736Z,16.25
2017-07-01T07:09:29.712Z,16.1
2017-07-01T07:10:29.697Z,16.22
2017-07-01T07:11:29.673Z,16.17
2017-07-01T07:12:29.654Z,16.07
2017-07-01T07:13:29.628Z,16.16
2017-07-01T07:14:29.603Z,16.16
2017-07-01T07:15:29.585Z,16.13
2017-07-01T07:16:29.563Z,16.13
2017-07-01T07:17:29.546Z,16.14
2017-07-01T07:18:29.529Z,16.1
2017-07-01T07:19:29.805Z,16.08
2017-07-01T07:20:29.490Z,16.11
2017-07-01T07:21:29.462Z,16.08
2017-07-01T07:22:29.442Z,16.11
2017-07-01T07:23:29.420Z,16.01
2017-07-01T07:24:29.114Z,16.07
2017-07-01T07:25:29.386Z,16.01
2017-07-01T07:26:29.061Z,16.07
2017-07-01T07:27:29.044Z,16.06
2017-07-01T07:28:29.322Z,15.99
2017-07-01T07:29:29.303Z,16.04
2017-07-01T07:30:28.972Z,16.07
2017-07-01T07:31:29.259Z,16.13
2017-07-01T07:32:29.237Z,16.1
2017-07-01T07:33:29.218Z,16.17
2017-07-01T07:34:29.193Z,16.23
2017-07-01T07:35:28.574Z,16.23
2017-07-01T07:36:29.153Z,16.22
2017-07-01T07:37:29.131Z,16.26
2017-07-01T07:38:29.173Z,16.27
2017-07-01T07:39:29.088Z,16.34
2017-07-01T07:40:29.066Z,16.36
2017-07-01T07:41:29.051Z,16.27
2017-07-01T07:42:29.032Z,16.32
2017-07-01T07:43:29.021Z,16.41
2017-07-01T07:44:28.991Z,16.48
2017-07-01T07:45:28.965Z,16.48
2017-07-01T07:46:28.947Z,16.59
2017-07-01T07:47:28.936Z,16.52
2017-07-01T07:48:28.906Z,16.6
2017-07-01T07:49:28.888Z,16.59
2017-07-01T07:50:28.872Z,16.63
2017-07-01T07:51:28.845Z,16.6
2017-07-01T07:52:28.530Z,16.67
2017-07-01T07:53:28.811Z,16.69
2017-07-01T07:54:28.788Z,16.7
2017-07-01T07:55:28.768Z,16.75
2017-07-01T07:56:28.750Z,16.77
2017-07-01T07:57:28.426Z,16.75
2017-07-01T07:58:28.769Z,16.9
2017-07-01T07:59:28.677Z,16.9
2017-07-01T08:00:28.660Z,16.84
2017-07-01T08:01:28.341Z,16.91
2017-07-01T08:02:28.636Z,16.92
2017-07-01T08:03:28.603Z,16.96
2017-07-01T08:04:28.613Z,17.03
2017-07-01T08:05:28.566Z,17.1
2017-07-01T08:06:28.544Z,17.14
2017-07-01T08:07:28.521Z,17.18
2017-07-01T08:08:28.503Z,17.25
2017-07-01T08:09:28.483Z,17.18
2017-07-01T08:10:28.469Z,17.25
2017-07-01T08:11:28.444Z,17.25
2017-07-01T08:12:28.479Z,17.3
2017-07-01T08:13:28.403Z,17.3
2017-07-01T08:14:28.383Z,17.35
2017-07-01T08:15:28.368Z,17.28
2017-07-01T08:16:28.357Z,17.4
2017-07-01T08:17:28.372Z,17.46
2017-07-01T08:18:28.318Z,17.6
2017-07-01T08:19:28.297Z,17.57
2017-07-01T08:20:28.274Z,17.74
2017-07-01T08:21:28.248Z,17.84
2017-07-01T08:22:28.283Z,17.92
2017-07-01T08:23:28.458Z,17.95
2017-07-01T08:24:28.187Z,17.86
2017-07-01T08:25:28.181Z,18.04
2017-07-01T08:26:28.151Z,18.01
2017-07-01T08:27:28.133Z,18.04
2017-07-01T08:28:28.136Z,18.07
2017-07-01T08:29:28.098Z,17.96
2017-07-01T08:30:27.774Z,17.98
2017-07-01T08:31:28.056Z,18.05
2017-07-01T08:32:28.041Z,17.98
2017-07-01T08:33:28.034Z,17.92
2017-07-01T08:34:28.007Z,17.95
2017-07-01T08:35:27.672Z,17.92
2017-07-01T08:36:28.004Z,17.89
2017-07-01T08:37:27.938Z,17.87
2017-07-01T08:38:27.917Z,17.73
2017-07-01T08:39:27.897Z,17.77
2017-07-01T08:40:27.884Z,17.68
2017-07-01T08:41:27.868Z,17.6
2017-07-01T08:42:27.847Z,17.58
2017-07-01T08:43:27.817Z,17.55
2017-07-01T08:44:27.803Z,17.46
2017-07-01T08:45:27.783Z,17.47
2017-07-01T08:46:27.758Z,17.4
2017-07-01T08:47:27.740Z,17.38
2017-07-01T08:48:27.423Z,17.42
2017-07-01T08:49:27.708Z,17.3
2017-07-01T08:50:27.683Z,17.28
2017-07-01T08:51:27.666Z,17.28
2017-07-01T08:52:27.649Z,17.4
2017-07-01T08:53:27.629Z,17.32
2017-07-01T08:54:27.605Z,17.32
2017-07-01T08:55:27.285Z,17.4
2017-07-01T08:56:27.567Z,17.3
2017-07-01T08:57:27.551Z,17.39
2017-07-01T08:58:27.547Z,17.33
2017-07-01T08:59:27.505Z,17.33
2017-07-01T09:00:27.489Z,17.33
2017-07-01T09:01:27.466Z,17.3
2017-07-01T09:02:27.143Z,17.33
2017-07-01T09:03:27.427Z,17.42
2017-07-01T09:04:27.416Z,17.33
2017-07-01T09:05:27.435Z,17.24
2017-07-01T09:06:27.065Z,17.3
2017-07-01T09:07:27.350Z,17.2
2017-07-01T09:08:27.327Z,17.2
2017-07-01T09:09:27.007Z,17.14
2017-07-01T09:10:27.290Z,17.1
2017-07-01T09:11:27.281Z,17.1
2017-07-01T09:12:27.248Z,17.02
2017-07-01T09:13:27.223Z,17
2017-07-01T09:14:27.304Z,17.05
2017-07-01T09:15:27.191Z,17.02
2017-07-01T09:16:27.220Z,17.02
2017-07-01T09:17:27.144Z,16.99
2017-07-01T09:18:27.138Z,16.91
2017-07-01T09:19:27.111Z,16.99
2017-07-01T09:20:26.799Z,16.96
2017-07-01T09:21:27.067Z,16.96
2017-07-01T09:22:27.049Z,16.95
2017-07-01T09:23:27.074Z,16.92
2017-07-01T09:24:26.718Z,16.99
2017-07-01T09:25:26.992Z,16.98
2017-07-01T09:26:26.971Z,16.99
2017-07-01T09:27:26.952Z,17
2017-07-01T09:28:26.929Z,16.99
2017-07-01T09:29:26.912Z,17
2017-07-01T09:30:26.884Z,17.07
2017-07-01T09:31:26.862Z,17.05
2017-07-01T09:32:26.552Z,17.2
2017-07-01T09:33:26.836Z,17.15
2017-07-01T09:34:26.810Z,17.21
2017-07-01T09:35:26.785Z,17.28
2017-07-01T09:36:26.776Z,17.27
2017-07-01T09:37:26.753Z,17.35
2017-07-01T09:38:26.735Z,17.38
2017-07-01T09:39:26.708Z,17.36
2017-07-01T09:40:26.697Z,17.4
2017-07-01T09:41:26.665Z,17.33
2017-07-01T09:42:26.649Z,17.32
2017-07-01T09:43:26.634Z,17.32
2017-07-01T09:44:26.606Z,17.38
2017-07-01T09:45:26.590Z,17.3
2017-07-01T09:46:26.619Z,17.4
2017-07-01T09:47:26.549Z,17.46
2017-07-01T09:48:26.534Z,17.39
2017-07-01T09:49:26.207Z,17.45
2017-07-01T09:50:26.494Z,17.39
2017-07-01T09:51:26.473Z,17.46
2017-07-01T09:52:26.447Z,17.51
2017-07-01T09:53:26.432Z,17.46
2017-07-01T09:54:26.411Z,17.47
2017-07-01T09:55:26.389Z,17.53
2017-07-01T09:56:26.369Z,17.53
2017-07-01T09:57:26.358Z,17.51
2017-07-01T09:58:26.031Z,17.6
2017-07-01T09:59:26.324Z,17.63
2017-07-01T10:00:25.690Z,17.68
2017-07-01T10:01:26.271Z,17.83
2017-07-01T10:02:26.255Z,17.94
2017-07-01T10:03:26.230Z,17.99
2017-07-01T10:04:26.215Z,18.09
2017-07-01T10:05:26.195Z,18.26
2017-07-01T10:06:26.174Z,18.38
2017-07-01T10:07:26.165Z,18.41
2017-07-01T10:08:26.144Z,18.5
2017-07-01T10:09:26.113Z,18.56
2017-07-01T10:10:26.105Z,18.66
2017-07-01T10:11:26.077Z,18.62
2017-07-01T10:12:26.057Z,18.71
2017-07-01T10:13:26.046Z,18.75
2017-07-01T10:14:26.027Z,18.79
2017-07-01T10:15:26.025Z,18.94
2017-07-01T10:16:25.682Z,18.96
2017-07-01T10:17:26.015Z,19.07
2017-07-01T10:18:25.949Z,19.12
2017-07-01T10:19:25.930Z,19.23
2017-07-01T10:20:25.917Z,19.16
2017-07-01T10:21:25.886Z,19.23
2017-07-01T10:22:25.569Z,19.28
2017-07-01T10:23:25.858Z,19.15
2017-07-01T10:24:25.541Z,19.25
2017-07-01T10:25:25.819Z,19.21
2017-07-01T10:26:25.802Z,19.13
2017-07-01T10:27:25.784Z,19.07
2017-07-01T10:28:25.761Z,18.94
2017-07-01T10:29:25.745Z,18.93
2017-07-01T10:30:25.422Z,18.78
2017-07-01T10:31:25.704Z,18.69
2017-07-01T10:32:25.686Z,18.59
2017-07-01T10:33:25.674Z,18.35
2017-07-01T10:34:25.651Z,18.32
2017-07-01T10:35:25.638Z,18.21
2017-07-01T10:36:25.608Z,18.2
2017-07-01T10:37:25.605Z,18.14
2017-07-01T10:38:25.586Z,18.01
2017-07-01T10:39:25.548Z,18.04
2017-07-01T10:40:25.539Z,17.99
2017-07-01T10:41:25.528Z,17.96
2017-07-01T10:42:25.502Z,18.01
2017-07-01T10:43:25.527Z,17.96
2017-07-01T10:44:25.462Z,17.91
2017-07-01T10:45:25.143Z,17.91
2017-07-01T10:46:25.421Z,17.83
2017-07-01T10:47:25.403Z,17.8
2017-07-01T10:48:25.386Z,17.86
2017-07-01T10:49:25.370Z,17.68
2017-07-01T10:50:25.340Z,17.68
2017-07-01T10:51:25.327Z,17.66
2017-07-01T10:52:25.304Z,17.54
2017-07-01T10:53:25.284Z,17.55
2017-07-01T10:54:25.266Z,17.49
2017-07-01T10:55:25.245Z,17.51
2017-07-01T10:56:25.227Z,17.46
2017-07-01T10:57:25.207Z,17.47
2017-07-01T10:58:25.193Z,17.47
2017-07-01T10:59:25.174Z,17.47
2017-07-01T11:00:25.151Z,17.47
2017-07-01T11:01:25.142Z,17.35
2017-07-01T11:02:25.108Z,17.33
2017-07-01T11:03:25.104Z,17.38
2017-07-01T11:04:24.775Z,17.43
2017-07-01T11:05:25.057Z,17.53
2017-07-01T11:06:25.079Z,17.57
2017-07-01T11:07:25.014Z,17.62
2017-07-01T11:08:24.988Z,17.77
2017-07-01T11:09:24.981Z,17.76
2017-07-01T11:10:25.205Z,17.79
2017-07-01T11:11:24.938Z,17.71
2017-07-01T11:12:24.918Z,17.89
2017-07-01T11:13:24.887Z,17.77
2017-07-01T11:14:24.578Z,17.94
2017-07-01T11:15:24.852Z,17.83
2017-07-01T11:16:24.862Z,17.84
2017-07-01T11:17:24.518Z,17.86
2017-07-01T11:18:24.801Z,17.86
2017-07-01T11:19:24.775Z,17.94
2017-07-01T11:20:24.753Z,17.96
2017-07-01T11:21:24.735Z,18.01
2017-07-01T11:22:24.750Z,18.02
2017-07-01T11:23:24.698Z,18.09
2017-07-01T11:24:24.425Z,18.07
2017-07-01T11:25:24.662Z,18.16
2017-07-01T11:26:24.651Z,18.25
2017-07-01T11:27:24.615Z,18.23
2017-07-01T11:28:24.301Z,18.41
2017-07-01T11:29:24.589Z,18.59
2017-07-01T11:30:24.614Z,18.57
2017-07-01T11:31:24.551Z,18.71
2017-07-01T11:32:24.528Z,18.79
2017-07-01T11:33:24.208Z,18.97
2017-07-01T11:34:24.488Z,19.05
2017-07-01T11:35:24.460Z,19.1
2017-07-01T11:36:24.503Z,19.1
2017-07-01T11:37:24.433Z,19.12
2017-07-01T11:38:24.413Z,19.05
2017-07-01T11:39:24.387Z,18.99
2017-07-01T11:40:24.380Z,18.96
2017-07-01T11:41:24.403Z,18.93
2017-07-01T11:42:24.383Z,18.84
2017-07-01T11:43:24.318Z,18.84
2017-07-01T11:44:24.316Z,18.83
2017-07-01T11:45:24.274Z,18.68
2017-07-01T11:46:24.254Z,18.64
2017-07-01T11:47:24.238Z,18.64
2017-07-01T11:48:24.221Z,18.54
2017-07-01T11:49:24.209Z,18.53
2017-07-01T11:50:24.188Z,18.59
2017-07-01T11:51:24.167Z,18.54
2017-07-01T11:52:24.145Z,18.5
2017-07-01T11:53:24.125Z,18.5
2017-07-01T11:54:24.107Z,18.46
2017-07-01T11:55:24.084Z,18.53
2017-07-01T11:56:23.768Z,18.54
2017-07-01T11:57:23.739Z,18.53
2017-07-01T11:58:23.728Z,18.51
2017-07-01T11:59:24.009Z,18.62
2017-07-01T12:00:23.990Z,18.6
2017-07-01T12:01:24.024Z,18.74
2017-07-01T12:02:23.957Z,18.78
2017-07-01T12:03:23.936Z,18.89
2017-07-01T12:04:23.915Z,18.97
2017-07-01T12:05:23.596Z,19.16
2017-07-01T12:06:23.881Z,19.17
2017-07-01T12:07:23.863Z,19.23
2017-07-01T12:08:23.836Z,19.27
2017-07-01T12:09:23.827Z,19.25
2017-07-01T12:10:23.803Z,19.21
2017-07-01T12:11:23.787Z,19.28
2017-07-01T12:12:23.767Z,19.21
2017-07-01T12:13:23.755Z,19.23
2017-07-01T12:14:23.727Z,19.16
2017-07-01T12:15:23.706Z,19.16
2017-07-01T12:16:23.689Z,19.12
2017-07-01T12:17:23.673Z,19.09
2017-07-01T12:18:23.648Z,19.05
2017-07-01T12:19:23.631Z,18.94
2017-07-01T12:20:23.614Z,18.87
2017-07-01T12:21:23.290Z,18.89
2017-07-01T12:22:23.577Z,18.75
2017-07-01T12:23:23.598Z,18.82
2017-07-01T12:24:23.541Z,18.78
2017-07-01T12:25:23.514Z,18.76
2017-07-01T12:26:23.552Z,18.65
2017-07-01T12:27:23.483Z,18.66
2017-07-01T12:28:23.162Z,18.64
2017-07-01T12:29:23.448Z,18.64
2017-07-01T12:30:23.417Z,18.53
2017-07-01T12:31:23.411Z,18.47
2017-07-01T12:32:23.388Z,18.5
2017-07-01T12:33:23.377Z,18.38
2017-07-01T12:34:23.343Z,18.29
2017-07-01T12:35:23.323Z,18.25
2017-07-01T12:36:23.308Z,18.19
2017-07-01T12:37:23.289Z,18.19
2017-07-01T12:38:23.271Z,18.16
2017-07-01T12:39:23.260Z,18.09
2017-07-01T12:40:23.226Z,18.09
2017-07-01T12:41:23.202Z,17.99
2017-07-01T12:42:23.192Z,18.1
2017-07-01T12:43:23.160Z,18.07
2017-07-01T12:44:23.210Z,17.89
2017-07-01T12:45:23.127Z,17.87
2017-07-01T12:46:23.109Z,17.87
2017-07-01T12:47:23.083Z,17.8
2017-07-01T12:48:23.113Z,17.63
2017-07-01T12:49:23.048Z,17.62
2017-07-01T12:50:23.035Z,17.66
2017-07-01T12:51:23.010Z,17.54
2017-07-01T12:52:23.041Z,17.43
2017-07-01T12:53:22.971Z,17.4
2017-07-01T12:54:22.948Z,17.39
2017-07-01T12:55:22.930Z,17.28